Time;durP1;ratioP1;P1;durP2;ratioP2;P2;SDS_P1;SDS_P2;PMS_P1;PMS_P2;Temp;Humidity;BMP_temperature;BMP_pressure;BME280_temperature;BME280_humidity;BME280_pressure;Samples;Min_cycle;Max_cycle;Signal;HPM_P1;HPM_P2
2023/01/14 00:00:16;;;;;;;;;7.25;7.25;;;;;9.22;72.72;101058.66;5058004;28;45271;-69
2023/01/14 00:02:42;;;;;;;;;5.75;5.75;;;;;9.25;72.82;101055.09;5058396;28;45557;-68
2023/01/14 00:05:08;;;;;;;;;7.25;7.25;;;;;9.20;72.81;101042.94;5059164;28;51966;-67
2023/01/14 00:07:33;;;;;;;;;4.75;4.75;;;;;9.26;73.17;101043.69;5057583;28;45339;-68
2023/01/14 00:09:59;;;;;;;;;6.00;6.00;;;;;9.18;73.45;101025.53;5057492;28;45268;-70
2023/01/14 00:12:24;;;;;;;;;15.75;15.75;;;;;9.27;73.73;101037.53;5057249;28;45413;-67
2023/01/14 00:14:49;;;;;;;;;8.75;8.00;;;;;9.27;73.56;101037.53;5056924;28;45355;-69
2023/01/14 00:17:14;;;;;;;;;7.00;7.00;;;;;9.29;73.85;101030.47;5056963;28;56399;-67
2023/01/14 00:19:40;;;;;;;;;5.00;5.00;;;;;9.30;73.72;101029.56;5057661;28;45267;-68
2023/01/14 00:22:05;;;;;;;;;4.00;4.00;;;;;9.30;74.28;101033.06;5058569;28;45770;-68
2023/01/14 00:24:31;;;;;;;;;5.50;5.50;;;;;9.26;74.81;101006.94;5057556;28;45976;-69
2023/01/14 00:26:57;;;;;;;;;6.25;6.25;;;;;9.31;74.58;101015.53;5057596;28;45518;-67
2023/01/14 00:29:26;;;;;;;;;6.25;5.75;;;;;9.31;75.06;101005.03;5057384;28;45166;-68
2023/01/14 00:32:05;;;;;;;;;4.50;4.50;;;;;9.27;75.16;100992.91;5057209;28;45227;-68
2023/01/14 00:34:32;;;;;;;;;18.50;17.25;;;;;9.33;75.26;101003.22;5057009;28;45390;-67
2023/01/14 00:36:58;;;;;;;;;6.25;6.25;;;;;9.34;75.56;101000.56;5057118;28;45382;-69
2023/01/14 00:39:25;;;;;;;;;4.00;4.00;;;;;9.34;75.81;100989.19;5057127;28;45441;-67
2023/01/14 00:41:50;;;;;;;;;6.00;6.00;;;;;9.35;76.30;100980.41;5057419;28;45582;-67
2023/01/14 00:44:17;;;;;;;;;5.00;5.00;;;;;9.35;77.22;100983.03;5057304;28;46525;-68
2023/01/14 00:46:43;;;;;;;;;3.75;3.75;;;;;9.27;78.58;100970.16;5056351;28;46172;-68
2023/01/14 00:49:16;;;;;;;;;11.00;11.00;;;;;9.23;79.35;100962.41;5057679;28;45417;-68
2023/01/14 00:51:41;;;;;;;;;5.50;5.50;;;;;9.09;80.10;100936.56;5057636;28;45496;-67
2023/01/14 00:54:07;;;;;;;;;6.75;6.75;;;;;9.24;80.56;100956.25;5057377;28;46035;-70
2023/01/14 00:56:32;;;;;;;;;4.25;4.25;;;;;9.21;81.08;100955.44;5054922;28;45533;-67
2023/01/14 00:58:58;;;;;;;;;4.75;4.75;;;;;9.21;81.90;100944.94;5054429;28;45636;-67
2023/01/14 01:01:23;;;;;;;;;5.75;5.75;;;;;9.19;82.07;100938.00;5054506;28;45522;-68
2023/01/14 01:03:52;;;;;;;;;5.00;5.00;;;;;9.14;82.28;100935.50;5053402;28;46049;-69
2023/01/14 01:06:20;;;;;;;;;2.25;2.25;;;;;9.16;82.90;100933.69;5054548;28;45365;-68
2023/01/14 01:08:46;;;;;;;;;4.00;4.00;;;;;9.17;83.13;100943.28;5070829;27;45425;-69
2023/01/14 01:11:12;;;;;;;;;6.00;6.00;;;;;9.14;83.21;100930.25;5070336;28;45512;-69
2023/01/14 01:13:38;;;;;;;;;5.00;5.00;;;;;9.17;83.60;100929.31;5053108;28;47603;-69
2023/01/14 01:16:14;;;;;;;;;4.00;4.00;;;;;9.16;83.75;100920.56;5070241;28;46284;-69
2023/01/14 01:18:40;;;;;;;;;7.25;6.00;;;;;9.18;83.47;100918.75;5070806;28;45523;-69
2023/01/14 01:21:11;;;;;;;;;6.00;6.00;;;;;9.24;83.76;100919.50;5056687;28;45431;-68
2023/01/14 01:23:41;;;;;;;;;8.50;7.75;;;;;9.28;84.10;100908.88;5056355;28;45469;-68
2023/01/14 01:26:10;;;;;;;;;8.00;8.00;;;;;9.31;84.03;100900.91;5055858;28;45465;-69
2023/01/14 01:28:36;;;;;;;;;11.00;11.00;;;;;9.33;84.00;100900.84;5056611;28;45292;-69
2023/01/14 01:31:07;;;;;;;;;7.25;5.25;;;;;9.40;83.76;100910.25;5056028;28;45456;-70
2023/01/14 01:33:33;;;;;;;;;9.50;9.50;;;;;9.17;83.70;100879.47;5056452;28;46116;-69
2023/01/14 01:36:00;;;;;;;;;14.00;14.00;;;;;9.40;83.94;100912.88;5056979;28;45168;-67
2023/01/14 01:38:26;;;;;;;;;9.00;9.00;;;;;9.39;84.04;100905.91;5073813;28;45403;-70
2023/01/14 01:40:51;;;;;;;;;8.25;8.25;;;;;9.37;83.72;100888.50;5056455;28;45348;-69
2023/01/14 01:43:18;;;;;;;;;9.00;8.75;;;;;9.44;83.86;100893.50;5056522;28;45449;-69
2023/01/14 01:45:49;;;;;;;;;8.00;8.00;;;;;9.47;84.17;100897.81;5056436;28;45381;-69
2023/01/14 01:48:23;;;;;;;;;11.25;11.25;;;;;9.39;84.14;100884.06;5055938;28;45218;-69
2023/01/14 01:50:54;;;;;;;;;8.50;8.50;;;;;9.45;83.99;100889.97;5056667;28;45422;-69
2023/01/14 01:53:20;;;;;;;;;8.00;8.00;;;;;9.49;84.14;100899.47;5056563;28;46222;-67
2023/01/14 01:55:51;;;;;;;;;9.50;9.50;;;;;9.50;84.49;100895.09;5057462;28;45460;-68
2023/01/14 01:58:17;;;;;;;;;10.00;10.00;;;;;9.55;84.58;100900.22;5057748;28;45462;-68
2023/01/14 02:00:42;;;;;;;;;7.25;7.25;;;;;9.51;84.67;100883.69;5058176;28;45426;-70
2023/01/14 02:03:17;;;;;;;;;8.00;8.00;;;;;9.61;84.76;100886.91;5056822;28;45396;-69
2023/01/14 02:05:43;;;;;;;;;6.00;6.00;;;;;9.63;84.77;100890.34;5055801;28;45367;-69
2023/01/14 02:08:09;;;;;;;;;8.00;7.00;;;;;9.63;85.07;100871.94;5055055;28;45432;-68
2023/01/14 02:10:55;;;;;;;;;6.50;6.50;;;;;9.68;85.03;100872.66;5056262;28;45427;-68
2023/01/14 02:13:42;;;;;;;;;6.75;6.75;;;;;9.67;85.06;100863.06;5056350;28;46117;-69
2023/01/14 02:16:50;;;;;;;;;7.75;7.75;;;;;9.72;85.25;100860.28;5057222;28;45294;-68
2023/01/14 02:19:26;;;;;;;;;4.50;4.50;;;;;9.74;86.02;100855.81;5052415;28;45270;-69
2023/01/14 02:22:00;;;;;;;;;5.50;5.50;;;;;9.75;85.91;100845.28;5056347;28;45218;-68
2023/01/14 02:24:39;;;;;;;;;7.00;7.00;;;;;9.77;85.72;100839.97;5056878;28;45224;-69
2023/01/14 02:27:17;;;;;;;;;7.00;7.00;;;;;9.77;86.27;100830.34;5070384;28;45424;-69
2023/01/14 02:29:54;;;;;;;;;5.50;5.50;;;;;9.75;86.54;100819.00;5055543;28;45303;-67
2023/01/14 02:32:27;;;;;;;;;4.75;4.75;;;;;9.75;86.63;100821.66;5056068;28;45266;-68
2023/01/14 02:34:58;;;;;;;;;3.00;3.00;;;;;9.73;86.57;100820.84;5071132;28;48698;-70
2023/01/14 02:37:52;;;;;;;;;4.50;4.50;;;;;9.71;86.95;100822.66;5055312;28;45385;-70
2023/01/14 02:40:29;;;;;;;;;5.00;4.25;;;;;9.70;87.49;100823.56;5049907;28;45395;-69
2023/01/14 02:46:25;;;;;;;;;3.00;3.00;;;;;9.69;87.67;100821.84;5055392;28;45432;-68
2023/01/14 02:48:53;;;;;;;;;3.00;3.00;;;;;9.69;87.26;100815.72;5044981;28;45381;-68
2023/01/14 02:51:20;;;;;;;;;3.25;3.25;;;;;9.71;87.67;100820.03;5054328;28;45483;-68
2023/01/14 02:53:45;;;;;;;;;2.00;2.00;;;;;9.69;87.46;100813.09;5053533;28;45468;-68
2023/01/14 02:56:11;;;;;;;;;3.00;3.00;;;;;9.65;87.68;100807.94;5054659;28;46170;-68
2023/01/14 02:58:59;;;;;;;;;2.75;2.75;;;;;9.73;87.91;100812.09;5053828;28;45358;-69
2023/01/14 03:02:00;;;;;;;;;2.00;2.00;;;;;9.75;87.94;100802.38;5054856;28;45259;-68
2023/01/14 03:04:32;;;;;;;;;3.00;3.00;;;;;9.76;87.87;100793.59;5054953;28;45410;-68
2023/01/14 03:07:18;;;;;;;;;3.00;3.00;;;;;9.76;87.92;100797.09;5054704;28;45425;-68
2023/01/14 03:10:03;;;;;;;;;2.00;2.00;;;;;9.80;87.66;100797.81;5055602;28;45424;-69
2023/01/14 03:12:46;;;;;;;;;3.00;3.00;;;;;9.79;87.53;100794.34;5056510;28;45355;-68
2023/01/14 03:15:33;;;;;;;;;2.50;2.50;;;;;9.77;87.48;100780.41;5055014;28;45542;-68
2023/01/14 03:18:23;;;;;;;;;2.00;2.00;;;;;9.80;87.35;100782.06;5069048;28;47229;-70
2023/01/14 03:20:55;;;;;;;;;2.00;2.00;;;;;9.79;87.16;100770.72;5055108;28;45310;-69
2023/01/14 03:23:25;;;;;;;;;2.00;2.00;;;;;9.81;87.04;100767.19;5055301;28;45306;-69
2023/01/14 03:25:53;;;;;;;;;3.50;3.50;;;;;9.82;86.59;100755.75;5055164;28;45266;-69
2023/01/14 03:28:25;;;;;;;;;1.00;1.00;;;;;9.82;86.27;100750.50;5053443;28;48487;-68
2023/01/14 03:31:04;;;;;;;;;1.00;1.00;;;;;9.84;86.23;100741.63;5054898;28;45347;-70
2023/01/14 03:33:35;;;;;;;;;0.25;0.25;;;;;9.84;85.37;100738.16;5054243;28;45394;-68
2023/01/14 03:36:04;;;;;;;;;1.00;1.00;;;;;9.85;85.71;100732.00;5056702;28;45434;-69
2023/01/14 03:38:35;;;;;;;;;0.50;0.50;;;;;9.82;85.69;100711.09;5054731;28;46975;-68
2023/01/14 03:41:04;;;;;;;;;1.50;1.50;;;;;9.88;85.22;100716.97;5054229;28;45347;-68
2023/01/14 03:43:41;;;;;;;;;2.00;2.00;;;;;9.87;85.50;100704.75;5054322;28;45298;-68
2023/01/14 03:46:07;;;;;;;;;5.00;5.00;;;;;9.89;85.09;100696.84;5054346;28;45438;-68
2023/01/14 03:48:32;;;;;;;;;2.50;1.75;;;;;9.86;85.07;100691.69;5052393;28;47573;-68
2023/01/14 03:51:20;;;;;;;;;1.00;1.00;;;;;9.89;85.45;100700.28;5054076;28;45376;-68
2023/01/14 03:54:09;;;;;;;;;1.00;1.00;;;;;9.90;85.24;100701.16;5054278;28;45370;-68
2023/01/14 03:57:15;;;;;;;;;2.75;2.75;;;;;9.90;85.29;100683.63;5059045;28;45376;-68
2023/01/14 04:00:02;;;;;;;;;2.00;2.00;;;;;9.93;85.10;100685.28;5058617;28;45421;-67
2023/01/14 04:02:30;;;;;;;;;2.00;2.00;;;;;9.95;85.27;100678.22;5058262;28;45326;-67
2023/01/14 04:04:56;;;;;;;;;2.25;2.25;;;;;9.90;84.88;100667.84;5058387;28;45242;-68
2023/01/14 04:07:22;;;;;;;;;3.00;3.00;;;;;9.99;85.11;100676.31;5058074;28;45350;-67
2023/01/14 04:09:48;;;;;;;;;3.75;2.75;;;;;9.99;84.92;100661.41;5058028;28;45458;-67
2023/01/14 04:12:13;;;;;;;;;2.00;2.00;;;;;10.02;84.43;100653.44;5057627;28;45348;-68
2023/01/14 04:17:22;;;;;;;;;2.50;2.50;;;;;10.04;84.35;100638.47;5058544;28;45410;-67
2023/01/14 04:19:48;;;;;;;;;2.25;2.00;;;;;10.03;83.98;100634.13;5057521;28;45490;-68
2023/01/14 04:22:13;;;;;;;;;2.00;2.00;;;;;9.96;84.24;100606.34;5056300;28;45438;-68
2023/01/14 04:24:38;;;;;;;;;2.25;2.25;;;;;10.05;84.16;100611.25;5059068;28;45360;-69
2023/01/14 04:27:04;;;;;;;;;2.50;2.50;;;;;10.08;84.00;100618.19;5057702;28;46670;-67
2023/01/14 04:29:30;;;;;;;;;4.00;4.00;;;;;10.05;83.92;100600.75;5057728;28;45984;-69
2023/01/14 04:31:55;;;;;;;;;2.00;2.00;;;;;10.08;83.92;100599.78;5057502;28;53493;-67
2023/01/14 04:34:21;;;;;;;;;4.75;4.00;;;;;10.08;83.78;100595.38;5057677;28;45273;-69
2023/01/14 04:36:46;;;;;;;;;2.25;2.25;;;;;10.11;84.23;100604.06;5057057;28;52047;-69
2023/01/14 04:39:11;;;;;;;;;4.00;4.00;;;;;10.05;84.14;100590.25;5057188;28;45387;-68
2023/01/14 04:44:20;;;;;;;;;4.00;3.25;;;;;10.08;83.96;100611.16;5059235;28;45342;-69
2023/01/14 04:46:46;;;;;;;;;1.00;1.00;;;;;10.02;84.18;100592.97;5057465;28;45449;-67
2023/01/14 04:49:11;;;;;;;;;4.00;4.00;;;;;10.09;83.82;100597.09;5058577;28;46082;-67
2023/01/14 04:51:37;;;;;;;;;2.00;2.00;;;;;10.07;84.06;100591.03;5056154;28;45326;-68
2023/01/14 04:54:03;;;;;;;;;5.00;3.50;;;;;10.13;83.52;100597.84;5056993;28;45261;-67
2023/01/14 04:56:28;;;;;;;;;4.00;4.00;;;;;10.17;83.80;100602.06;5057121;28;45223;-69
2023/01/14 04:58:53;;;;;;;;;2.75;2.25;;;;;10.19;83.58;100584.47;5056018;28;62267;-69
2023/01/14 05:01:18;;;;;;;;;4.00;4.00;;;;;10.20;83.33;100565.16;5056655;28;45226;-67
2023/01/14 05:03:44;;;;;;;;;4.25;3.50;;;;;10.21;83.99;100558.09;5072180;28;45279;-67
2023/01/14 05:06:09;;;;;;;;;7.75;7.75;;;;;10.19;83.84;100541.53;5055490;28;54292;-69
2023/01/14 05:08:34;;;;;;;;;4.00;4.00;;;;;10.21;83.10;100535.31;5056150;28;61389;-69
2023/01/14 05:11:00;;;;;;;;;2.25;2.25;;;;;10.17;82.95;100527.59;5058491;28;49046;-68
2023/01/14 05:13:25;;;;;;;;;3.25;3.25;;;;;10.24;83.38;100539.59;5058270;28;45231;-68
2023/01/14 05:15:50;;;;;;;;;3.75;2.50;;;;;10.21;83.15;100550.22;5058238;28;45216;-67
2023/01/14 05:18:17;;;;;;;;;4.50;4.50;;;;;10.21;82.93;100551.09;5055705;28;47616;-67
2023/01/14 05:20:43;;;;;;;;;4.25;4.25;;;;;10.20;82.58;100552.00;5057057;28;45493;-67
2023/01/14 05:23:12;;;;;;;;;4.25;4.25;;;;;10.20;82.70;100552.00;5056955;28;45354;-67
2023/01/14 05:25:37;;;;;;;;;2.50;2.50;;;;;10.23;82.90;100537.88;5056926;28;45436;-67
2023/01/14 05:28:09;;;;;;;;;2.25;2.00;;;;;10.17;82.76;100530.22;5056355;28;46090;-68
2023/01/14 05:30:35;;;;;;;;;1.50;1.50;;;;;10.22;82.59;100525.63;5057038;28;45456;-68
2023/01/14 05:33:00;;;;;;;;;2.50;2.50;;;;;10.24;81.78;100529.06;5056637;28;45307;-67
2023/01/14 05:35:25;;;;;;;;;3.00;3.00;;;;;10.21;81.78;100514.28;5056307;28;45355;-68
2023/01/14 05:37:52;;;;;;;;;3.00;3.00;;;;;10.21;82.17;100508.16;5056941;28;45711;-69
2023/01/14 05:40:18;;;;;;;;;3.25;3.25;;;;;10.20;81.96;100506.44;5071760;28;45263;-68
2023/01/14 05:48:11;;;;;;;;;2.00;2.00;;;;;10.18;81.57;100482.00;5055626;28;45428;-67
2023/01/14 05:50:38;;;;;;;;;1.00;1.00;;;;;10.16;81.72;100484.69;5055592;28;45403;-67
2023/01/14 05:53:05;;;;;;;;;4.00;2.25;;;;;10.14;81.34;100459.38;5056053;28;45301;-68
2023/01/14 05:55:31;;;;;;;;;1.75;1.25;;;;;9.91;81.16;100412.06;5056484;28;45251;-68
2023/01/14 05:57:58;;;;;;;;;3.00;3.00;;;;;10.15;81.38;100445.31;5055690;28;46633;-68
2023/01/14 06:08:37;;;;;;;;;2.50;2.50;;;;;10.16;81.38;100424.25;5055316;28;45267;-68
2023/01/14 06:11:02;;;;;;;;;1.75;1.75;;;;;10.16;80.88;100423.38;5055770;28;45296;-67
2023/01/14 06:13:28;;;;;;;;;1.00;1.00;;;;;10.16;80.70;100439.16;5054212;28;45360;-67
2023/01/14 06:15:55;;;;;;;;;3.75;2.00;;;;;10.13;80.93;100416.50;5054479;28;45300;-68
2023/01/14 06:18:22;;;;;;;;;0.75;0.75;;;;;10.16;80.62;100410.22;5056824;28;47038;-68
2023/01/14 06:20:52;;;;;;;;;1.50;1.50;;;;;10.18;80.16;100408.41;5055574;28;45189;-67
2023/01/14 06:23:19;;;;;;;;;1.00;1.00;;;;;10.17;80.04;100401.44;5054607;28;45506;-67
2023/01/14 06:25:47;;;;;;;;;3.25;3.25;;;;;10.19;80.06;100399.59;5056811;28;45533;-67
2023/01/14 06:28:13;;;;;;;;;2.25;2.25;;;;;10.21;79.89;100398.63;5056285;28;46246;-68
2023/01/14 06:30:39;;;;;;;;;1.50;1.50;;;;;10.22;80.42;100408.22;5055753;28;45317;-69
2023/01/14 06:33:06;;;;;;;;;1.00;1.00;;;;;10.21;80.21;100395.13;5056428;28;45317;-68
2023/01/14 06:35:31;;;;;;;;;1.00;1.00;;;;;10.20;79.99;100401.31;5055896;28;45567;-68
2023/01/14 06:37:57;;;;;;;;;1.00;1.00;;;;;10.17;80.18;100386.53;5055898;28;45370;-67
2023/01/14 06:40:22;;;;;;;;;0.00;0.00;;;;;10.16;79.88;100383.94;5055719;28;45525;-68
2023/01/14 06:42:51;;;;;;;;;1.50;1.50;;;;;10.16;80.21;100374.31;5055719;28;45340;-68
2023/01/14 06:45:17;;;;;;;;;1.00;1.00;;;;;10.12;80.03;100363.97;5056038;28;45485;-68
2023/01/14 06:47:42;;;;;;;;;1.25;1.25;;;;;10.18;80.00;100361.94;5055185;28;46114;-68
2023/01/14 06:50:08;;;;;;;;;2.00;2.00;;;;;10.18;80.08;100366.34;5056466;28;45185;-67
2023/01/14 06:52:33;;;;;;;;;1.50;1.50;;;;;10.13;80.39;100360.41;5058791;28;45401;-68
2023/01/14 06:54:58;;;;;;;;;1.00;1.00;;;;;10.12;80.30;100359.59;5058071;28;45235;-68
2023/01/14 06:57:25;;;;;;;;;2.00;2.00;;;;;10.14;80.30;100367.38;5058357;28;47621;-68
2023/01/14 06:59:51;;;;;;;;;4.00;2.25;;;;;10.12;80.47;100341.19;5058132;28;45342;-69
2023/01/14 07:02:16;;;;;;;;;3.25;2.00;;;;;10.17;80.58;100375.16;5057157;28;45354;-68
2023/01/14 07:04:43;;;;;;;;;3.75;1.50;;;;;10.13;80.39;100347.28;5055199;28;45166;-69
2023/01/14 07:07:09;;;;;;;;;3.00;2.00;;;;;10.12;80.54;100332.44;5053676;28;46097;-67
2023/01/14 07:09:35;;;;;;;;;0.75;0.75;;;;;10.16;80.96;100345.41;5054882;28;45363;-68
2023/01/14 07:12:00;;;;;;;;;2.50;2.50;;;;;10.17;80.93;100322.56;5053332;28;45360;-68
2023/01/14 07:14:25;;;;;;;;;2.00;2.00;;;;;10.12;80.61;100317.53;5055500;28;45429;-69
2023/01/14 07:16:51;;;;;;;;;2.25;2.25;;;;;10.15;80.58;100341.06;5056862;28;55925;-68
2023/01/14 07:19:16;;;;;;;;;2.75;1.00;;;;;10.13;80.71;100324.50;5056259;28;45294;-70
2023/01/14 07:21:41;;;;;;;;;4.25;4.25;;;;;10.13;81.25;100313.13;5055081;28;45445;-67
2023/01/14 07:24:07;;;;;;;;;1.00;1.00;;;;;10.12;80.94;100328.03;5054398;28;51132;-68
2023/01/14 07:26:32;;;;;;;;;3.75;3.00;;;;;10.12;81.38;100322.78;5054175;28;46357;-68
2023/01/14 07:28:58;;;;;;;;;1.75;1.75;;;;;10.12;81.59;100335.06;5054686;28;45365;-67
2023/01/14 07:31:23;;;;;;;;;2.00;2.00;;;;;10.08;82.26;100306.28;5058014;28;45328;-68
2023/01/14 07:33:48;;;;;;;;;4.75;3.50;;;;;9.99;82.21;100303.19;5058282;28;45608;-68
2023/01/14 07:36:14;;;;;;;;;1.00;1.00;;;;;9.96;82.52;100279.66;5057981;28;46703;-68
2023/01/14 07:38:39;;;;;;;;;2.00;1.50;;;;;10.03;82.72;100283.72;5058342;28;48643;-68
2023/01/14 07:41:11;;;;;;;;;1.00;1.00;;;;;10.01;82.66;100289.06;5060852;28;45446;-67
2023/01/14 07:43:37;;;;;;;;;2.25;2.25;;;;;10.01;83.24;100286.44;5058796;28;45459;-67
2023/01/14 07:46:03;;;;;;;;;2.25;2.25;;;;;9.99;83.22;100267.25;5057854;28;46463;-70
2023/01/14 07:48:29;;;;;;;;;3.00;3.00;;;;;9.97;83.17;100271.72;5057762;28;45206;-68
2023/01/14 07:50:55;;;;;;;;;2.00;2.00;;;;;9.97;83.45;100279.59;5058693;28;45882;-67
2023/01/14 07:53:20;;;;;;;;;2.00;2.00;;;;;9.72;83.36;100249.13;5058000;28;45277;-66
2023/01/14 07:55:46;;;;;;;;;2.50;2.50;;;;;9.93;83.44;100257.00;5057300;28;45613;-66
2023/01/14 07:58:11;;;;;;;;;3.75;3.75;;;;;9.96;83.63;100270.00;5057783;28;45322;-67
2023/01/14 08:00:36;;;;;;;;;1.00;1.00;;;;;9.94;83.21;100248.22;5058148;28;45355;-66
2023/01/14 08:03:02;;;;;;;;;2.00;2.00;;;;;9.91;83.68;100253.59;5058524;28;45232;-67
2023/01/14 08:05:28;;;;;;;;;1.00;1.00;;;;;9.88;83.40;100243.22;5059581;28;46694;-66
2023/01/14 08:07:53;;;;;;;;;0.50;0.50;;;;;10.01;83.43;100254.03;5058173;28;45481;-67
2023/01/14 08:10:19;;;;;;;;;3.00;2.25;;;;;10.00;83.64;100261.09;5057320;28;45398;-68
2023/01/14 08:12:44;;;;;;;;;2.00;2.00;;;;;9.99;84.13;100251.50;5057423;28;45636;-67
2023/01/14 08:15:11;;;;;;;;;2.75;2.75;;;;;9.98;84.40;100243.66;5057399;28;45323;-67
2023/01/14 08:17:37;;;;;;;;;2.00;2.00;;;;;9.98;84.60;100239.28;5057713;28;45296;-67
2023/01/14 08:20:03;;;;;;;;;0.75;0.75;;;;;9.96;84.42;100227.97;5056243;28;45378;-66
2023/01/14 08:22:29;;;;;;;;;2.00;2.00;;;;;9.85;84.55;100217.91;5057600;28;45248;-67
2023/01/14 08:24:55;;;;;;;;;1.00;1.00;;;;;9.98;85.20;100228.75;5056835;28;46900;-67
2023/01/14 08:27:20;;;;;;;;;1.50;1.50;;;;;9.97;85.24;100227.06;5056604;28;45443;-68
2023/01/14 08:29:45;;;;;;;;;2.00;2.00;;;;;9.94;85.90;100227.19;5059548;28;45297;-65
2023/01/14 08:32:12;;;;;;;;;3.00;3.00;;;;;9.91;86.28;100227.31;5057882;28;45217;-66
2023/01/14 08:34:38;;;;;;;;;4.00;2.25;;;;;9.90;86.57;100212.47;5057244;28;46165;-67
2023/01/14 08:37:03;;;;;;;;;3.25;3.00;;;;;9.94;85.97;100214.06;5057442;28;45406;-67
2023/01/14 08:39:28;;;;;;;;;2.00;2.00;;;;;9.94;86.36;100212.25;5057887;28;45343;-68
2023/01/14 08:41:53;;;;;;;;;1.00;1.00;;;;;9.97;86.58;100203.41;5056064;28;45475;-68
2023/01/14 08:44:19;;;;;;;;;2.00;2.00;;;;;10.00;87.14;100210.28;5056831;28;47785;-66
2023/01/14 08:46:44;;;;;;;;;2.75;2.75;;;;;9.95;87.27;100205.25;5056858;28;45285;-63
2023/01/14 08:49:11;;;;;;;;;1.25;1.25;;;;;9.99;87.35;100206.81;5057322;28;45848;-65
2023/01/14 08:51:36;;;;;;;;;3.00;2.50;;;;;9.95;86.88;100197.38;5057203;28;45548;-64
2023/01/14 08:54:01;;;;;;;;;1.50;1.50;;;;;10.04;87.09;100196.97;5058374;28;45430;-64
2023/01/14 08:56:27;;;;;;;;;2.25;2.25;;;;;10.07;86.79;100196.81;5057635;28;45342;-64
2023/01/14 08:58:53;;;;;;;;;2.25;1.75;;;;;10.04;87.27;100186.44;5057400;28;45362;-65
2023/01/14 09:01:19;;;;;;;;;1.00;1.00;;;;;10.14;87.22;100194.78;5057249;28;45181;-62
2023/01/14 09:03:45;;;;;;;;;1.75;1.75;;;;;10.16;87.48;100194.72;5055406;28;47223;-61
2023/01/14 09:06:13;;;;;;;;;2.75;2.75;;;;;10.17;87.35;100202.53;5057023;28;45228;-62
2023/01/14 09:17:05;;;;;;;;;0.00;0.00;;;;;10.22;86.94;100147.13;5056186;28;45235;-62
2023/01/14 09:19:33;;;;;;;;;5.75;5.75;;;;;10.27;87.10;100131.16;5055498;28;45372;-66
2023/01/14 09:21:59;;;;;;;;;2.75;2.75;;;;;10.29;86.90;100164.31;5056375;28;45422;-66
2023/01/14 09:24:24;;;;;;;;;2.25;2.25;;;;;10.30;87.16;100171.28;5056135;28;45366;-64
2023/01/14 09:26:50;;;;;;;;;2.00;2.00;;;;;10.31;86.97;100156.38;5056134;28;45466;-65
2023/01/14 09:29:15;;;;;;;;;1.25;1.25;;;;;10.38;87.63;100169.16;5054263;28;45564;-67
2023/01/14 09:31:40;;;;;;;;;1.00;1.00;;;;;10.38;87.61;100145.47;5056665;28;45166;-67
2023/01/14 09:34:06;;;;;;;;;1.00;1.00;;;;;10.42;87.73;100158.53;5055955;28;45394;-67
2023/01/14 09:36:31;;;;;;;;;2.25;2.25;;;;;10.42;87.67;100158.53;5055162;28;45217;-69
2023/01/14 09:38:57;;;;;;;;;1.25;1.25;;;;;10.43;87.69;100160.22;5055323;28;56756;-76
2023/01/14 09:41:26;;;;;;;;;2.00;2.00;;;;;10.43;88.32;100147.94;5072085;28;45234;-69
2023/01/14 09:43:52;;;;;;;;;1.75;1.75;;;;;10.44;88.74;100141.75;5055443;28;45960;-73
2023/01/14 09:46:22;;;;;;;;;1.50;1.50;;;;;10.44;88.74;100139.13;5055948;28;45306;-66
2023/01/14 09:48:47;;;;;;;;;2.00;2.00;;;;;10.44;88.82;100143.53;5071509;28;45320;-70
2023/01/14 09:51:55;;;;;;;;;1.75;1.75;;;;;10.43;88.70;100136.56;5056023;28;45391;-65
2023/01/14 09:54:26;;;;;;;;;1.00;1.00;;;;;10.45;88.67;100145.22;5055542;28;45898;-65
2023/01/14 09:57:00;;;;;;;;;2.25;2.25;;;;;10.41;88.77;100126.13;5033939;28;45329;-64
2023/01/14 09:59:50;;;;;;;;;3.75;3.75;;;;;10.47;88.30;100131.09;5035027;28;45500;-64
2023/01/14 10:02:27;;;;;;;;;2.25;2.00;;;;;10.48;88.65;100130.19;5056574;28;45383;-79
2023/01/14 10:05:14;;;;;;;;;1.00;1.00;;;;;10.54;88.28;100131.66;5053878;28;46248;-66
2023/01/14 10:07:40;;;;;;;;;2.00;2.00;;;;;10.59;87.98;100127.03;5053663;28;45262;-65
2023/01/14 10:10:20;;;;;;;;;2.50;2.50;;;;;10.62;87.81;100123.41;5054619;28;45642;-64
2023/01/14 10:12:48;;;;;;;;;5.50;5.50;;;;;10.66;87.68;100119.69;5053274;28;45552;-66
2023/01/14 10:15:32;;;;;;;;;2.25;2.25;;;;;10.72;88.02;100113.31;5054658;28;46720;-68
2023/01/14 10:18:09;;;;;;;;;3.25;3.25;;;;;10.75;87.87;100095.59;5051441;28;45476;-69
2023/01/14 10:20:42;;;;;;;;;3.00;3.00;;;;;10.80;87.50;100104.09;5070296;28;45438;-67
2023/01/14 10:23:14;;;;;;;;;4.00;4.00;;;;;10.80;87.36;100090.94;5054581;28;45413;-66
2023/01/14 10:25:47;;;;;;;;;5.25;5.25;;;;;10.80;87.42;100085.69;5053286;28;46653;-66
2023/01/14 10:28:15;;;;;;;;;2.25;2.25;;;;;10.88;87.34;100068.66;5041747;28;45522;-70
2023/01/14 10:30:43;;;;;;;;;3.00;3.00;;;;;10.92;86.68;100078.09;5048591;28;45460;-66
2023/01/14 10:33:14;;;;;;;;;1.00;1.00;;;;;10.93;86.92;100070.16;5051349;28;45679;-69
2023/01/14 10:35:44;;;;;;;;;3.00;3.00;;;;;10.86;86.83;100060.00;5050416;28;45369;-70
2023/01/14 10:38:18;;;;;;;;;2.00;2.00;;;;;10.87;86.68;100056.44;5051728;28;45525;-68
2023/01/14 10:40:46;;;;;;;;;3.25;3.25;;;;;10.76;86.30;100030.69;5050590;28;45558;-69
2023/01/14 10:43:34;;;;;;;;;3.00;3.00;;;;;11.03;86.72;100067.91;5051232;28;45567;-66
2023/01/14 10:46:00;;;;;;;;;3.25;3.25;;;;;11.05;87.00;100058.13;5045384;28;47365;-70
2023/01/14 10:48:28;;;;;;;;;9.75;9.75;;;;;10.97;88.05;100047.16;5053882;28;45551;-75
2023/01/14 10:51:14;;;;;;;;;3.75;3.75;;;;;11.06;87.69;100049.31;5048459;28;45410;-68
2023/01/14 10:53:42;;;;;;;;;2.00;2.00;;;;;11.07;87.35;100029.13;5048804;28;45472;-70
2023/01/14 10:56:08;;;;;;;;;2.00;2.00;;;;;11.05;87.96;100029.19;5057111;28;46312;-69
2023/01/14 10:58:43;;;;;;;;;3.00;3.00;;;;;10.94;87.94;100024.50;5054600;28;45445;-65
2023/01/14 11:01:11;;;;;;;;;3.00;3.00;;;;;11.00;88.01;100027.75;5061072;28;45484;-65
2023/01/14 11:03:42;;;;;;;;;2.00;2.00;;;;;11.01;87.66;100042.59;5047696;28;45268;-64
2023/01/14 11:06:11;;;;;;;;;3.00;3.00;;;;;11.04;87.67;100034.56;5051163;28;46155;-68
2023/01/14 11:08:40;;;;;;;;;3.50;3.50;;;;;11.06;88.24;100030.06;5073339;27;45490;-63
2023/01/14 11:11:16;;;;;;;;;2.75;2.75;;;;;11.05;87.96;100012.56;5053116;28;45582;-65
2023/01/14 11:13:44;;;;;;;;;3.00;3.00;;;;;11.00;88.26;100004.06;5053748;28;45498;-64
2023/01/14 11:16:21;;;;;;;;;3.00;2.50;;;;;11.03;88.39;99996.84;5085742;27;47171;-64
2023/01/14 11:19:02;;;;;;;;;2.75;2.75;;;;;11.04;88.57;100002.97;5047967;28;45350;-65
2023/01/14 11:21:33;;;;;;;;;4.00;4.00;;;;;11.03;88.72;99999.47;5049643;28;45159;-64
2023/01/14 11:24:21;;;;;;;;;3.00;3.00;;;;;11.04;89.22;99995.06;5050607;28;45835;-66
2023/01/14 11:26:46;;;;;;;;;7.00;7.00;;;;;11.05;89.15;99986.25;5039432;28;46311;-66
2023/01/14 11:29:24;;;;;;;;;4.00;4.00;;;;;11.05;89.15;99973.09;5054012;28;45379;-69
2023/01/14 11:31:53;;;;;;;;;4.00;4.00;;;;;11.06;88.73;99964.25;5049504;28;46617;-65
2023/01/14 11:34:26;;;;;;;;;5.25;5.25;;;;;11.07;89.06;99964.16;5052879;28;45547;-68
2023/01/14 11:37:02;;;;;;;;;5.00;5.00;;;;;11.08;89.02;99947.44;5041695;28;45516;-65
2023/01/14 11:39:27;;;;;;;;;8.00;6.75;;;;;11.10;89.19;99937.69;5052524;28;45339;-66
2023/01/14 11:41:52;;;;;;;;;15.25;15.25;;;;;11.16;89.28;99939.16;5036169;28;45451;-68
2023/01/14 11:44:23;;;;;;;;;4.00;4.00;;;;;11.18;88.83;99928.56;5054057;27;45585;-67
2023/01/14 11:47:12;;;;;;;;;16.50;16.50;;;;;11.20;89.01;99930.16;5053653;28;46806;-76
2023/01/14 11:49:38;;;;;;;;;4.00;4.00;;;;;11.20;89.02;99924.06;5053375;28;45689;-78
2023/01/14 11:52:06;;;;;;;;;3.00;3.00;;;;;11.22;88.98;99923.03;5053024;28;45395;-77
2023/01/14 11:54:33;;;;;;;;;4.00;4.00;;;;;11.20;89.49;99906.47;5058614;28;45802;-79
2023/01/14 11:56:59;;;;;;;;;3.75;3.75;;;;;11.18;89.61;99902.22;5070476;28;47150;-77
2023/01/14 11:59:33;;;;;;;;;4.00;4.00;;;;;11.23;89.13;99893.13;5056371;28;45470;-77
2023/01/14 12:02:30;;;;;;;;;4.50;4.50;;;;;11.19;89.39;99875.81;5054289;28;45436;-80
2023/01/14 12:05:15;;;;;;;;;6.00;6.00;;;;;11.26;89.47;99876.34;5053219;28;45482;-78
2023/01/14 12:07:48;;;;;;;;;4.00;4.00;;;;;11.27;88.70;99874.53;5054395;28;45946;-75
2023/01/14 12:10:20;;;;;;;;;4.00;4.00;;;;;11.28;89.17;99877.09;5069987;28;45502;-77